Strona główna
METAR-TAF:

METAR-TAF

Lotnisko :

Thule, Grenlandia

Szerokość geograficzna: 76-32N, Długość geograficzna: 068-42W, wysokość: 77 m

Aktualna obserwacja pogody

Raport powstał 29 minut temu, godzina 14:55 UTC
Wiatr 4 kt od zachodnio-północny zachód
Temperatura 10°C
Wilgotność 57%
Ciśnienie 1000 hPa
Widzialność 10 km lub więcej
bezchmurnie

METAR: BGTL 211455Z AUTO 30004KT 9999 CLR 10/02 A2952 RMK AO2 SLP980 T00960024 56004 TSNO $

czas: 12:24 (15:24 UTC)

Prognoza

Raport powstał 5 godziny i 24 minut temu, godzina 10:00 UTC
Prognoza ważna od 21 godzina 10 UTC do 22 godzina 16 UTC
Wiatr 6 kt z kierunków zmiennych
Widzialność 10 km lub więcej
Mało chmury na wysokości 20000 ft
Stopniowe zmiany
od 22 godzina 02 UTC do 22 godzina 03 UTC
Wiatr 9 kt od wschodnio-południowy wschód
Widzialność 10 km lub więcej
Rozproszone chmury na wysokości 15000 ft

TAF: BGTL 211000Z 2110/2216 VRB06KT 9999 FEW200 QNH2945INS BECMG 2202/2203 12009KT 9999 SCT150 QNH2940INS TX08/2119Z TN04/2206Z

Obserwacja i prognoza pogody dla ponad 4000 lotnisk (raport METAR i TAF).

Dostępne stacje oznaczono żółtymi i czerwonymi punktami na mapie.

Najedź kursorem aby zobaczyć nazwę stacji.

Kliknij aby zobaczyć obserwacje i prognozy pogody.

Aby zmienić mapę: kliknij na zielony przycisk z czarnym krzyżykiem, aby powiększyć; na zielony przycisk z myślnikiem, aby pomniejszyć; na zielone strzałki, aby przejść do map sąsiednich.


METAR-TAF: